Terminal Aerodrome Forecast
Issued by NWS Sioux Falls, SD

Home | Current Version | Previous Version | Text Only | Print | Product List | Glossary On
Versions: 1 2 3 4 5 6 7 8 9 10 11 12 13
000
FTUS43 KFSD 042330
TAFFSD
TAF
KFSD 042330Z 0500/0524 10008KT P6SM SCT120 BKN250
     FM050800 09010KT P6SM OVC070
     FM051300 10012KT P6SM OVC050
     FM052000 12013G20KT P6SM OVC050=

USA.gov is the U.S. government's official web portal to all federal, state and local government web resources and services.